createdAt,value
2022-11-19T00:01:43.389Z,100.00
2022-11-19T00:07:18.921Z,99.50
2022-11-19T00:10:08.969Z,98.79
2022-11-19T00:12:58.157Z,98.61
2022-11-19T00:15:46.267Z,99.14
2022-11-19T00:21:22.766Z,100.00
2022-11-19T00:24:11.504Z,100.00
2022-11-19T00:29:46.679Z,100.00
2022-11-19T00:35:29.116Z,100.00
2022-11-19T00:38:17.833Z,100.00
2022-11-19T00:41:07.013Z,100.00
2022-11-19T00:46:41.481Z,100.00
2022-11-19T00:52:15.610Z,100.00
2022-11-19T00:55:06.756Z,100.00
2022-11-19T00:57:55.585Z,100.00
2022-11-19T01:00:43.975Z,100.00
2022-11-19T01:06:20.920Z,100.00
2022-11-19T01:11:54.629Z,100.00
2022-11-19T01:17:26.595Z,99.67
2022-11-19T01:25:33.664Z,100.00
2022-11-19T01:28:21.966Z,100.00
2022-11-19T01:34:00.117Z,100.00
2022-11-19T01:36:48.999Z,100.00
2022-11-19T01:42:24.237Z,100.00
2022-11-19T01:45:26.077Z,100.00
2022-11-19T01:50:55.938Z,100.00
2022-11-19T01:56:34.706Z,100.00
2022-11-19T01:59:23.360Z,100.00
2022-11-19T02:07:46.451Z,100.00
2022-11-19T02:13:26.641Z,100.00
2022-11-19T02:19:00.419Z,99.95
2022-11-19T02:24:48.834Z,97.50
2022-11-19T02:27:51.568Z,97.10
2022-11-19T02:30:41.479Z,96.62
2022-11-19T02:39:22.451Z,95.53
2022-11-19T02:42:14.806Z,95.20
2022-11-19T02:47:53.875Z,93.94
2022-11-19T02:53:27.590Z,92.90
2022-11-19T02:59:23.391Z,92.43
2022-11-19T03:04:54.154Z,92.71
2022-11-19T03:07:42.683Z,93.02
2022-11-19T03:22:25.019Z,93.05
2022-11-19T03:28:07.391Z,93.27
2022-11-19T03:33:36.328Z,93.42
2022-11-19T03:39:09.524Z,95.03
2022-11-19T03:44:47.830Z,94.23
2022-11-19T03:47:38.079Z,93.93
2022-11-19T03:53:19.391Z,93.36
2022-11-19T03:58:56.437Z,93.97
2022-11-19T04:01:46.300Z,94.28
2022-11-19T04:07:30.196Z,95.14
2022-11-19T04:13:01.280Z,97.91
2022-11-19T04:15:58.940Z,98.25
2022-11-19T04:21:33.660Z,100.00
2022-11-19T04:27:03.190Z,100.00
2022-11-19T04:32:56.394Z,100.00
2022-11-19T04:38:25.811Z,100.00
2022-11-19T04:41:14.346Z,100.00
2022-11-19T04:46:44.161Z,100.00
2022-11-19T04:52:19.884Z,100.00
2022-11-19T04:57:52.968Z,99.90
2022-11-19T05:00:41.234Z,99.48
2022-11-19T05:06:18.451Z,100.00
2022-11-19T05:11:54.277Z,100.00
2022-11-19T05:17:31.237Z,100.00
2022-11-19T05:20:20.049Z,100.00
2022-11-19T05:25:56.115Z,100.00
2022-11-19T05:31:36.262Z,100.00
2022-11-19T05:37:12.196Z,100.00
2022-11-19T05:40:01.223Z,100.00
2022-11-19T05:45:37.427Z,100.00
2022-11-19T05:48:25.833Z,100.00
2022-11-19T05:54:03.619Z,100.00
2022-11-19T05:56:52.205Z,100.00
2022-11-19T05:59:43.780Z,100.00
2022-11-19T06:05:12.262Z,100.00
2022-11-19T06:10:40.935Z,100.00
2022-11-19T06:18:55.216Z,99.76
2022-11-19T06:24:29.619Z,100.00
2022-11-19T06:30:05.446Z,100.00
2022-11-19T06:38:21.527Z,100.00
2022-11-19T06:43:59.848Z,100.00
2022-11-19T06:47:07.072Z,100.00
2022-11-19T06:52:34.350Z,100.00
2022-11-19T07:01:01.736Z,100.00
2022-11-19T07:06:37.145Z,100.00
2022-11-19T07:12:07.083Z,99.83
2022-11-19T07:17:38.036Z,100.00
2022-11-19T07:20:28.067Z,100.00
2022-11-19T07:26:03.132Z,100.00
2022-11-19T07:31:34.365Z,100.00
2022-11-19T07:34:22.614Z,99.24
2022-11-19T07:45:24.222Z,96.58
2022-11-19T07:50:56.444Z,94.00
2022-11-19T07:53:46.548Z,94.36
2022-11-19T07:59:16.071Z,91.62
2022-11-19T08:04:53.126Z,89.20
2022-11-19T08:10:21.631Z,89.93
2022-11-19T08:15:49.614Z,86.82
2022-11-19T08:18:38.325Z,87.30
2022-11-19T08:24:19.731Z,85.40
2022-11-19T08:29:51.310Z,83.17
2022-11-19T08:35:20.211Z,82.22
2022-11-19T08:38:09.915Z,80.77
2022-11-19T08:43:38.807Z,78.67
2022-11-19T08:46:26.879Z,78.12
2022-11-19T08:54:49.046Z,75.60
2022-11-19T08:57:38.150Z,73.74
2022-11-19T09:03:04.549Z,74.18
2022-11-19T09:08:40.603Z,72.68
2022-11-19T09:11:29.062Z,72.91
2022-11-19T09:17:07.291Z,71.93
2022-11-19T09:28:03.835Z,70.44
2022-11-19T09:33:39.995Z,71.25
2022-11-19T09:39:38.929Z,72.79
2022-11-19T09:42:32.381Z,74.90
2022-11-19T09:49:15.258Z,75.85
2022-11-19T09:55:27.103Z,75.43
2022-11-19T10:01:28.974Z,76.70
2022-11-19T10:08:01.877Z,76.35
2022-11-19T10:17:16.957Z,77.31
2022-11-19T10:23:40.014Z,77.51
2022-11-19T10:26:33.784Z,76.85
2022-11-19T10:32:31.371Z,76.36
2022-11-19T10:35:22.967Z,76.75
2022-11-19T10:40:57.964Z,78.94
2022-11-19T10:49:23.337Z,79.03
2022-11-19T10:55:23.682Z,78.86
2022-11-19T11:01:05.328Z,78.42
2022-11-19T11:06:53.215Z,79.22
2022-11-19T11:12:46.309Z,80.12
2022-11-19T11:18:17.491Z,79.95
2022-11-19T11:23:53.361Z,78.93
2022-11-19T11:29:29.879Z,75.55
2022-11-19T11:32:31.771Z,75.38
2022-11-19T11:46:50.256Z,70.63
2022-11-19T11:52:30.861Z,71.39
2022-11-19T11:58:28.425Z,70.02
2022-11-19T12:01:18.561Z,71.19
2022-11-19T12:06:51.429Z,71.16
2022-11-19T12:09:44.702Z,71.68
2022-11-19T12:15:19.902Z,70.38
2022-11-19T12:20:58.577Z,64.95
2022-11-19T12:29:28.866Z,63.44
2022-11-19T12:35:26.487Z,66.25
2022-11-19T12:38:25.440Z,67.15
2022-11-19T12:44:00.673Z,67.06
2022-11-19T12:49:53.331Z,68.25
2022-11-19T12:55:40.192Z,70.50
2022-11-19T13:01:15.470Z,70.35
2022-11-19T13:06:55.110Z,68.43
2022-11-19T13:09:46.111Z,69.27
2022-11-19T13:15:20.929Z,71.71
2022-11-19T13:20:50.832Z,71.66
2022-11-19T13:26:26.750Z,71.64
2022-11-19T13:31:58.867Z,72.76
2022-11-19T13:38:00.060Z,73.74
2022-11-19T13:44:00.351Z,73.82
2022-11-19T13:52:24.739Z,74.50
2022-11-19T13:55:28.975Z,75.29
2022-11-19T14:01:46.088Z,74.77
2022-11-19T14:10:43.687Z,72.69
2022-11-19T14:13:41.604Z,72.45
2022-11-19T14:19:33.349Z,70.24
2022-11-19T14:26:00.658Z,70.49
2022-11-19T14:31:53.029Z,71.25
2022-11-19T14:37:33.514Z,72.20
2022-11-19T14:40:23.388Z,71.95
2022-11-19T14:43:46.353Z,71.98
2022-11-19T14:46:35.525Z,72.34
2022-11-19T14:52:23.022Z,72.34
2022-11-19T14:58:12.387Z,73.13
2022-11-19T15:01:09.710Z,73.21
2022-11-19T15:06:47.966Z,75.92
2022-11-19T15:15:41.722Z,78.58
2022-11-19T15:19:12.801Z,78.78
2022-11-19T15:22:23.253Z,78.71
2022-11-19T15:28:24.426Z,79.12
2022-11-19T15:31:22.371Z,79.59
2022-11-19T15:34:38.610Z,80.38
2022-11-19T15:40:15.100Z,81.83
2022-11-19T15:45:52.248Z,80.96
2022-11-19T15:48:43.758Z,81.39
2022-11-19T15:54:40.986Z,82.58
2022-11-19T16:00:21.069Z,83.25
2022-11-19T16:03:11.612Z,84.03
2022-11-19T16:08:49.263Z,83.53
2022-11-19T16:14:40.671Z,83.88
2022-11-19T16:20:22.133Z,83.59
2022-11-19T16:23:11.785Z,83.25
2022-11-19T16:28:51.657Z,83.52
2022-11-19T16:34:26.671Z,82.90
2022-11-19T16:39:54.870Z,82.72
2022-11-19T16:45:39.918Z,82.64
2022-11-19T16:51:45.801Z,82.75
2022-11-19T16:57:31.830Z,82.65
2022-11-19T17:03:02.128Z,82.43
2022-11-19T17:08:32.102Z,82.45
2022-11-19T17:14:20.480Z,82.03
2022-11-19T17:20:01.628Z,82.07
2022-11-19T17:22:49.749Z,82.22
2022-11-19T17:25:37.895Z,82.23
2022-11-19T17:28:37.909Z,82.62
2022-11-19T17:34:20.572Z,82.90
2022-11-19T17:39:57.103Z,83.09
2022-11-19T17:45:32.467Z,83.17
2022-11-19T17:51:15.078Z,83.14
2022-11-19T17:54:04.271Z,83.52
2022-11-19T17:56:54.206Z,83.09
2022-11-19T18:02:24.082Z,84.30
2022-11-19T18:08:04.043Z,84.45
2022-11-19T18:13:36.359Z,85.17
2022-11-19T18:19:14.736Z,85.26
2022-11-19T18:22:02.971Z,86.10
2022-11-19T18:27:38.808Z,85.55
2022-11-19T18:33:10.410Z,85.85
2022-11-19T18:38:42.526Z,86.42
2022-11-19T18:44:34.390Z,86.28
2022-11-19T18:50:13.483Z,87.16
2022-11-19T18:53:03.500Z,87.97
2022-11-19T18:58:36.659Z,86.48
2022-11-19T19:01:25.390Z,87.09
2022-11-19T19:06:55.933Z,84.03
2022-11-19T19:12:25.789Z,84.29
2022-11-19T19:18:06.441Z,85.54
2022-11-19T19:23:35.790Z,85.20
2022-11-19T19:26:25.367Z,84.81
2022-11-19T19:31:55.335Z,84.67
2022-11-19T19:34:45.565Z,84.90
2022-11-19T19:37:34.853Z,85.08
2022-11-19T19:40:23.421Z,84.15
2022-11-19T19:43:12.938Z,83.88
2022-11-19T19:46:05.599Z,83.57
2022-11-19T19:51:41.408Z,82.90
2022-11-19T19:54:29.699Z,83.51
2022-11-19T20:00:19.282Z,82.96
2022-11-19T20:05:51.898Z,82.26
2022-11-19T20:11:24.122Z,83.55
2022-11-19T20:16:58.414Z,84.01
2022-11-19T20:22:33.106Z,84.88
2022-11-19T20:28:08.669Z,85.39
2022-11-19T20:33:50.644Z,84.43
2022-11-19T20:36:38.802Z,84.72
2022-11-19T20:39:26.655Z,85.35
2022-11-19T20:45:02.248Z,85.08
2022-11-19T20:47:50.614Z,85.08
2022-11-19T20:53:26.027Z,84.46
2022-11-19T20:58:56.488Z,84.76
2022-11-19T21:01:44.814Z,84.91
2022-11-19T21:04:35.516Z,84.43
2022-11-19T21:10:23.597Z,85.60
2022-11-19T21:15:54.774Z,86.72
2022-11-19T21:18:43.300Z,87.29
2022-11-19T21:21:31.721Z,88.18
2022-11-19T21:27:08.898Z,89.24
2022-11-19T21:29:56.590Z,90.22
2022-11-19T21:32:45.822Z,90.58
2022-11-19T21:35:34.965Z,91.17
2022-11-19T21:38:24.226Z,91.44
2022-11-19T21:41:12.331Z,91.62
2022-11-19T21:44:01.865Z,93.00
2022-11-19T21:49:37.892Z,94.25
2022-11-19T21:55:15.467Z,94.70
2022-11-19T21:58:05.909Z,95.17
2022-11-19T22:19:10.912Z,98.03
2022-11-19T22:29:12.782Z,99.15
2022-11-19T22:32:06.503Z,100.00
2022-11-19T22:37:34.767Z,97.30
2022-11-19T22:40:22.941Z,97.84
2022-11-19T22:46:00.332Z,98.72
2022-11-19T22:48:51.846Z,99.69
2022-11-19T22:51:42.075Z,99.75
2022-11-19T22:59:51.124Z,100.00
2022-11-19T23:05:21.606Z,100.00
2022-11-19T23:11:03.409Z,100.00
2022-11-19T23:16:38.915Z,100.00
2022-11-19T23:22:07.369Z,100.00
2022-11-19T23:27:49.096Z,100.00
2022-11-19T23:30:38.761Z,98.86
2022-11-19T23:36:14.286Z,98.10
2022-11-19T23:41:44.233Z,96.78
2022-11-19T23:47:12.999Z,96.25
2022-11-19T23:52:53.070Z,96.09
2022-11-19T23:58:22.521Z,95.54
